METAR Data
IDs: Format: Raw Decoded Include TAF

Data at: 0231 UTC 12 May 2021

KRZL 120215Z AUTO 35003KT 10SM CLR 04/00 A3040 RMK AO2
KRZL 120155Z AUTO 00000KT 10SM CLR 05/00 A3039 RMK AO2
KRZL 120135Z AUTO 00000KT 10SM CLR 05/00 A3038 RMK AO2
KRZL 120115Z AUTO 35004KT 10SM CLR 05/M01 A3038 RMK AO2
KRZL 120055Z AUTO 36006KT 10SM CLR 06/M01 A3037 RMK AO2
KRZL 120035Z AUTO 36008KT 10SM CLR 07/M01 A3036 RMK AO2
KRZL 120015Z AUTO 36007KT 10SM CLR 07/M01 A3036 RMK AO2
KRZL 112355Z AUTO 35011KT 10SM CLR 08/M01 A3036 RMK AO2
KRZL 112335Z AUTO 36009G14KT 10SM CLR 08/00 A3035 RMK AO2
KRZL 112315Z AUTO 01012G18KT 10SM CLR 09/00 A3034 RMK AO2
KRZL 112255Z AUTO 01011KT 10SM CLR 10/M01 A3034 RMK AO2
KRZL 112235Z AUTO 35013G17KT 10SM CLR 10/M01 A3033 RMK AO2
KRZL 112215Z AUTO 36012KT 10SM CLR 10/M01 A3032 RMK AO2
KRZL 112155Z AUTO 01014G17KT 10SM CLR 10/M01 A3033 RMK AO2
KRZL 112135Z AUTO 36014G17KT 10SM CLR 11/M02 A3033 RMK AO2
KRZL 112115Z AUTO 01016G20KT 10SM CLR 11/00 A3032 RMK AO2
KRZL 112055Z AUTO 36010G18KT 10SM CLR 11/00 A3033 RMK AO2
KRZL 112035Z AUTO 02012G17KT 10SM CLR 11/00 A3032 RMK AO2
KRZL 112015Z AUTO 35011G17KT 10SM CLR 11/00 A3032 RMK AO2
KRZL 111955Z AUTO 02014G19KT 10SM CLR 11/00 A3033 RMK AO2
KRZL 111935Z AUTO 36011G18KT 10SM SCT050 11/00 A3033 RMK AO2
KRZL 111915Z AUTO 36009G18KT 321V021 10SM SCT050 11/00 A3032 RMK AO2
KRZL 111855Z AUTO 36008G16KT 10SM SCT050 11/00 A3032 RMK AO2
KRZL 111835Z AUTO 35010G18KT 10SM SCT050 11/00 A3033 RMK AO2
KRZL 111815Z AUTO 35007G17KT 10SM BKN050 BKN065 11/01 A3034 RMK AO2
KRZL 111755Z AUTO 36009G16KT 10SM SCT050 SCT065 11/01 A3034 RMK AO2
KRZL 111735Z AUTO 01008G16KT 10SM SCT050 BKN060 10/00 A3035 RMK AO2
KRZL 111715Z AUTO 35007KT 10SM SCT050 SCT065 11/00 A3035 RMK AO2
KRZL 111655Z AUTO 36006KT 10SM SCT046 BKN050 BKN065 10/01 A3035 RMK AO2
KRZL 111635Z AUTO 02005KT 10SM SCT044 BKN050 11/01 A3035 RMK AO2
KRZL 111615Z AUTO 36004KT 10SM SCT042 BKN047 10/02 A3035 RMK AO2
KRZL 111555Z AUTO 01004KT 10SM SCT042 SCT048 10/01 A3035 RMK AO2
KRZL 111535Z AUTO 01005G14KT 10SM SCT040 10/02 A3035 RMK AO2
KRZL 111515Z AUTO 01006KT 10SM CLR 10/02 A3035 RMK AO2
KRZL 111455Z AUTO 03004KT 10SM CLR 09/01 A3034 RMK AO2
KRZL 111435Z AUTO 02006KT 10SM CLR 09/02 A3034 RMK AO2
KRZL 111415Z AUTO 05006KT 10SM CLR 08/02 A3034 RMK AO2
KRZL 111355Z AUTO 02005KT 10SM CLR 08/02 A3034 RMK AO2
KRZL 111335Z AUTO 03008KT 10SM CLR 07/02 A3033 RMK AO2
KRZL 111315Z AUTO 04008KT 10SM CLR 07/02 A3032 RMK AO2
KRZL 111255Z AUTO 03008KT 10SM CLR 06/02 A3031 RMK AO2
KRZL 111235Z AUTO 03008KT 10SM CLR 06/02 A3031 RMK AO2
KRZL 111215Z AUTO 03008KT 10SM CLR 06/02 A3031 RMK AO2
KRZL 111155Z AUTO 01006KT 10SM SCT100 05/02 A3031 RMK AO2
KRZL 111135Z AUTO 36004KT 10SM BKN100 04/01 A3030 RMK AO2
KRZL 111115Z AUTO 36005KT 10SM BKN100 04/01 A3029 RMK AO2
KRZL 111055Z AUTO 36004KT 10SM BKN090 03/01 A3029 RMK AO2
KRZL 111035Z AUTO 01003KT 10SM OVC080 03/01 A3028 RMK AO2
KRZL 111015Z AUTO 00000KT 10SM OVC080 03/01 A3027 RMK AO2
KRZL 110955Z AUTO 02003KT 10SM OVC080 03/01 A3026 RMK AO2
KRZL 110935Z AUTO 00000KT 10SM BKN080 OVC110 03/01 A3026 RMK AO2
KRZL 110915Z AUTO 00000KT 10SM BKN080 OVC110 03/01 A3025 RMK AO2
KRZL 110855Z AUTO 00000KT 10SM SCT080 OVC110 03/00 A3024 RMK AO2
KRZL 110835Z AUTO 35003KT 10SM SCT070 SCT080 OVC120 03/00 A3024 RMK AO2
KRZL 110815Z AUTO 36004KT 10SM BKN120 03/00 A3023 RMK AO2
KRZL 110755Z AUTO 01004KT 10SM SCT120 03/00 A3023 RMK AO2
KRZL 110735Z AUTO 01004KT 10SM SCT100 SCT120 03/00 A3023 RMK AO2
KRZL 110715Z AUTO 01003KT 10SM SCT100 BKN120 03/00 A3022 RMK AO2
KRZL 110655Z AUTO 00000KT 10SM OVC110 05/00 A3022 RMK AO2
KRZL 110635Z AUTO 00000KT 10SM SCT075 OVC090 05/01 A3022 RMK AO2
KRZL 110615Z AUTO 00000KT 10SM SCT075 OVC090 05/01 A3023 RMK AO2
KRZL 110555Z AUTO 00000KT 10SM BKN090 05/00 A3022 RMK AO2
KRZL 110535Z AUTO 03005KT 10SM BKN090 05/00 A3021 RMK AO2
KRZL 110515Z AUTO 03005KT 10SM OVC090 05/01 A3021 RMK AO2
KRZL 110455Z AUTO 36003KT 10SM OVC090 05/01 A3022 RMK AO2
KRZL 110435Z AUTO 01004KT 10SM OVC090 05/01 A3021 RMK AO2
KRZL 110415Z AUTO 01003KT 10SM OVC080 06/01 A3021 RMK AO2
KRZL 110355Z AUTO 01003KT 10SM BKN080 OVC110 06/02 A3021 RMK AO2
KRZL 110335Z AUTO 04004KT 10SM SCT050 BKN070 OVC110 06/02 A3020 RMK AO2
KRZL 110315Z AUTO 04004KT 10SM SCT050 OVC070 06/02 A3020 RMK AO2
KRZL 110255Z AUTO 04004KT 10SM -DZ SCT046 OVC060 06/02 A3020 RMK AO2
KRZL 110235Z AUTO 02006KT 10SM -RA SCT046 OVC060 06/02 A3020 RMK AO2
KRZL 110215Z AUTO 01008KT 10SM DZ SCT042 OVC060 06/02 A3019 RMK AO2
KRZL 110155Z AUTO 01009G15KT 10SM DZ OVC044 06/02 A3019 RMK AO2
KRZL 110135Z AUTO 01012KT 10SM -RA SCT044 BKN060 OVC070 07/02 A3018 RMK AO2
KRZL 110115Z AUTO 01009KT 10SM -DZ BKN060 BKN075 OVC090 07/02 A3017 RMK AO2
KRZL 110055Z AUTO 36005KT 10SM -DZ SCT044 SCT060 OVC090 07/03 A3017 RMK AO2
KRZL 110035Z AUTO 35008KT 10SM DZ SCT039 SCT046 OVC090 07/03 A3017 RMK AO2
KRZL 110015Z AUTO 35007KT 10SM OVC090 08/03 A3016 RMK AO2
KRZL 102355Z AUTO 35008KT 10SM -DZ SCT035 SCT050 OVC090 08/04 A3015 RMK AO2
KRZL 102335Z AUTO 36005KT 10SM OVC033 09/04 A3014 RMK AO2
KRZL 102315Z AUTO 35006KT 10SM OVC031 10/05 A3014 RMK AO2
KRZL 102255Z AUTO 35007KT 10SM OVC029 10/06 A3014 RMK AO2
KRZL 102235Z AUTO 25006KT 10SM -RA OVC031 10/08 A3014 RMK AO2
KRZL 102215Z AUTO 24007KT 10SM -RA BKN033 OVC041 10/08 A3014 RMK AO2
KRZL 102155Z AUTO 25005KT 5SM -RA BKN039 OVC047 10/08 A3014 RMK AO2 P0006 LTG DSNT W
KRZL 102135Z AUTO 22004KT 10SM RA SCT036 OVC045 11/07 A3012 RMK AO2
KRZL 102115Z AUTO 22009KT 7SM /VCTSDZ OVC045 11/07 A3012 RMK AO2
KRZL 102055Z AUTO 22007KT 10SM BKN048 BKN070 OVC080 12/05 A3012 RMK AO2
KRZL 102035Z AUTO 29003KT 10SM SCT048 BKN060 OVC075 13/05 A3011 RMK AO2
KRZL 102015Z AUTO 25005KT 10SM BKN048 OVC065 13/04 A3011 RMK AO2
KRZL 101955Z AUTO 23005KT 10SM SCT048 OVC060 14/05 A3011 RMK AO2
KRZL 101935Z AUTO 22007KT 10SM SCT048 OVC060 14/05 A3011 RMK AO2
KRZL 101915Z AUTO 20006G14KT 10SM SCT050 SCT060 14/05 A3012 RMK AO2
KRZL 101855Z AUTO 24007KT 10SM SCT050 SCT090 13/04 A3012 RMK AO2
KRZL 101835Z AUTO 23010KT 10SM SCT055 BKN090 13/05 A3013 RMK AO2
KRZL 101815Z AUTO 24006KT 10SM SCT055 BKN065 BKN085 13/05 A3013 RMK AO2
KRZL 101755Z AUTO 26005KT 10SM SCT049 BKN060 OVC085 12/03 A3014 RMK AO2
KRZL 101735Z AUTO 00000KT 10SM BKN060 BKN070 OVC085 12/02 A3014 RMK AO2
KRZL 101715Z AUTO 33005KT 10SM -RA BKN065 OVC070 11/03 A3015 RMK AO2
KRZL 101655Z AUTO 32003KT 10SM OVC065 11/02 A3015 RMK AO2
KRZL 101635Z AUTO 29003KT 10SM BKN065 BKN090 12/02 A3015 RMK AO2
KRZL 101615Z AUTO 26003KT 10SM BKN065 BKN080 12/03 A3015 RMK AO2
KRZL 101555Z AUTO 25005KT RMK AO2 PWINO